Terminal Aerodrome Forecast
Issued by NWS

Home | Current Version | Previous Version | Text Only | Print | Product List | Glossary On
Versions: 1 2 3 4 5 6 7 8 9 10 11 12 13 14 15 16 17
000
FTUS44 KCRP 172300
TAFALI
TAF
KALI 172335Z 1800/1824 11011KT P6SM BKN015 OVC025
      TEMPO 1800/1803 SCT015 OVC025
     FM180300 07008KT P6SM OVC008
     FM180800 04007KT 5SM BR OVC004
     FM181600 05010KT P6SM BKN012 OVC040
     FM181900 08009KT P6SM SCT025 BKN250=

USA.gov is the U.S. government's official web portal to all federal, state and local government web resources and services.